createdAt,value
2022-12-25T00:00:54.673Z,95771.88
2022-12-25T00:03:21.711Z,95761.28
2022-12-25T00:05:48.212Z,95760.00
2022-12-25T00:08:14.716Z,95751.19
2022-12-25T00:10:45.273Z,95756.03
2022-12-25T00:13:12.201Z,95748.38
2022-12-25T00:15:41.778Z,95749.72
2022-12-25T00:18:08.541Z,95751.91
2022-12-25T00:20:36.103Z,95744.78
2022-12-25T00:23:02.557Z,95739.47
2022-12-25T00:25:30.484Z,95749.84
2022-12-25T00:27:56.942Z,95752.03
2022-12-25T00:30:23.414Z,95748.13
2022-12-25T00:32:49.920Z,95743.63
2022-12-25T00:35:16.448Z,95740.28
2022-12-25T00:37:42.917Z,95735.78
2022-12-25T00:40:09.841Z,95735.19
2022-12-25T00:42:36.319Z,95733.56
2022-12-25T00:45:02.868Z,95732.00
2022-12-25T00:47:29.529Z,95726.69
2022-12-25T00:49:56.028Z,95724.19
2022-12-25T00:52:22.569Z,95730.09
2022-12-25T00:54:49.022Z,95726.91
2022-12-25T00:57:16.170Z,95722.09
2022-12-25T00:59:42.769Z,95724.38
2022-12-25T01:02:09.447Z,95728.75
2022-12-25T01:04:36.089Z,95734.19
2022-12-25T01:07:02.547Z,95736.50
2022-12-25T01:09:29.020Z,95737.84
2022-12-25T01:11:55.499Z,95732.28
2022-12-25T01:14:22.201Z,95726.13
2022-12-25T01:16:48.734Z,95734.03
2022-12-25T01:19:15.340Z,95726.22
2022-12-25T01:21:41.822Z,95724.84
2022-12-25T01:24:08.340Z,95726.13
2022-12-25T01:26:34.814Z,95725.97
2022-12-25T01:29:01.571Z,95730.06
2022-12-25T01:31:28.156Z,95734.72
2022-12-25T01:33:54.685Z,95736.00
2022-12-25T01:36:24.873Z,95733.91
2022-12-25T01:38:53.446Z,95730.22
2022-12-25T01:41:22.693Z,95727.22
2022-12-25T01:44:01.279Z,95726.97
2022-12-25T01:46:29.041Z,95728.88
2022-12-25T01:49:00.217Z,95732.06
2022-12-25T01:51:39.241Z,95726.13
2022-12-25T01:54:15.725Z,95718.66
2022-12-25T01:56:47.278Z,95720.78
2022-12-25T01:59:18.766Z,95718.16
2022-12-25T02:01:46.495Z,95720.16
2022-12-25T02:04:24.259Z,95721.78
2022-12-25T02:06:52.022Z,95722.50
2022-12-25T02:09:18.799Z,95731.06
2022-12-25T02:11:46.916Z,95726.22
2022-12-25T02:14:13.426Z,95721.94
2022-12-25T02:16:56.774Z,95728.03
2022-12-25T02:19:51.211Z,95726.03
2022-12-25T02:22:34.511Z,95732.31
2022-12-25T02:25:24.061Z,95727.56
2022-12-25T02:28:03.848Z,95715.91
2022-12-25T02:30:37.472Z,95710.44
2022-12-25T02:33:14.066Z,95708.78
2022-12-25T02:35:45.573Z,95707.78
2022-12-25T02:38:32.680Z,95699.88
2022-12-25T02:41:07.190Z,95709.53
2022-12-25T02:43:41.384Z,95706.94
2022-12-25T02:46:14.752Z,95705.28
2022-12-25T02:48:49.091Z,95705.19
2022-12-25T02:51:20.681Z,95700.44
2022-12-25T02:53:51.227Z,95695.34
2022-12-25T02:56:22.042Z,95682.97
2022-12-25T02:58:49.727Z,95686.78
2022-12-25T03:01:19.969Z,95687.88
2022-12-25T03:03:54.628Z,95694.28
2022-12-25T03:06:27.263Z,95697.47
2022-12-25T03:08:58.384Z,95687.09
2022-12-25T03:11:25.893Z,95694.28
2022-12-25T03:13:58.018Z,95693.81
2022-12-25T03:16:24.510Z,95680.81
2022-12-25T03:18:51.006Z,95679.34
2022-12-25T03:21:17.489Z,95686.44
2022-12-25T03:23:49.340Z,95678.56
2022-12-25T03:26:16.635Z,95680.25
2022-12-25T03:28:43.170Z,95681.25
2022-12-25T03:31:20.081Z,95664.13
2022-12-25T03:34:04.602Z,95651.25
2022-12-25T03:36:47.879Z,95658.16
2022-12-25T03:39:33.734Z,95653.75
2022-12-25T03:42:05.685Z,95644.66
2022-12-25T03:44:47.280Z,95651.19
2022-12-25T03:47:19.894Z,95649.09
2022-12-25T03:49:55.493Z,95644.94
2022-12-25T03:52:22.602Z,95639.50
2022-12-25T03:54:56.118Z,95628.09
2022-12-25T03:57:22.607Z,95627.50
2022-12-25T03:59:49.100Z,95632.63
2022-12-25T04:02:15.727Z,95632.97
2022-12-25T04:04:42.226Z,95626.38
2022-12-25T04:07:08.680Z,95635.56
2022-12-25T04:09:35.135Z,95632.25
2022-12-25T04:12:03.059Z,95622.09
2022-12-25T04:14:49.806Z,95640.97
2022-12-25T04:17:36.251Z,95634.72
2022-12-25T04:20:22.771Z,95625.16
2022-12-25T04:23:09.252Z,95639.31
2022-12-25T04:25:36.043Z,95636.31
2022-12-25T04:28:03.524Z,95644.09
2022-12-25T04:30:29.994Z,95636.84
2022-12-25T04:32:59.620Z,95634.72
2022-12-25T04:35:26.075Z,95633.41
2022-12-25T04:37:52.569Z,95630.44
2022-12-25T04:40:19.028Z,95626.44
2022-12-25T04:42:45.649Z,95628.13
2022-12-25T04:45:12.518Z,95636.03
2022-12-25T04:47:39.007Z,95631.75
2022-12-25T04:50:06.681Z,95632.94
2022-12-25T04:52:38.483Z,95621.38
2022-12-25T04:55:06.782Z,95620.22
2022-12-25T04:57:33.381Z,95626.19
2022-12-25T04:59:59.842Z,95629.19
2022-12-25T05:02:26.616Z,95612.75
2022-12-25T05:04:53.259Z,95614.69
2022-12-25T05:07:19.764Z,95599.22
2022-12-25T05:09:46.260Z,95598.88
2022-12-25T05:12:13.240Z,95593.63
2022-12-25T05:14:39.692Z,95616.84
2022-12-25T05:17:06.139Z,95611.94
2022-12-25T05:19:32.686Z,95609.47
2022-12-25T05:21:59.244Z,95613.41
2022-12-25T05:24:26.713Z,95611.44
2022-12-25T05:26:53.757Z,95613.22
2022-12-25T05:29:20.421Z,95613.72
2022-12-25T05:31:46.957Z,95609.13
2022-12-25T05:34:13.490Z,95618.16
2022-12-25T05:36:39.974Z,95623.13
2022-12-25T05:39:06.442Z,95612.75
2022-12-25T05:41:34.641Z,95618.81
2022-12-25T05:44:02.144Z,95611.09
2022-12-25T05:46:28.680Z,95610.13
2022-12-25T05:48:55.566Z,95609.31
2022-12-25T05:51:22.046Z,95609.13
2022-12-25T05:53:48.587Z,95615.06
2022-12-25T05:56:15.102Z,95615.06
2022-12-25T05:58:41.603Z,95623.28
2022-12-25T06:01:14.256Z,95628.56
2022-12-25T06:03:40.773Z,95623.31
2022-12-25T06:06:07.414Z,95629.19
2022-12-25T06:08:34.562Z,95631.16
2022-12-25T06:11:05.888Z,95625.25
2022-12-25T06:13:33.621Z,95621.13
2022-12-25T06:16:03.913Z,95621.97
2022-12-25T06:18:30.447Z,95629.53
2022-12-25T06:20:56.917Z,95634.78
2022-12-25T06:23:23.490Z,95630.38
2022-12-25T06:25:49.961Z,95644.34
2022-12-25T06:28:16.461Z,95643.00
2022-12-25T06:30:42.944Z,95647.94
2022-12-25T06:33:09.401Z,95644.81
2022-12-25T06:35:39.252Z,95636.47
2022-12-25T06:38:06.055Z,95644.16
2022-12-25T06:40:32.926Z,95645.00
2022-12-25T06:42:59.386Z,95648.25
2022-12-25T06:45:25.932Z,95647.28
2022-12-25T06:47:52.424Z,95643.66
2022-12-25T06:50:18.893Z,95653.53
2022-12-25T06:52:45.496Z,95650.44
2022-12-25T06:55:12.062Z,95647.25
2022-12-25T06:57:38.581Z,95653.50
2022-12-25T07:00:05.897Z,95650.19
2022-12-25T07:02:34.346Z,95651.84
2022-12-25T07:05:03.021Z,95656.06
2022-12-25T07:07:29.508Z,95643.22
2022-12-25T07:09:55.984Z,95644.53
2022-12-25T07:12:23.824Z,95646.16
2022-12-25T07:14:53.199Z,95649.44
2022-12-25T07:17:20.871Z,95649.44
2022-12-25T07:19:47.560Z,95642.38
2022-12-25T07:22:15.303Z,95652.41
2022-12-25T07:24:41.981Z,95657.28
2022-12-25T07:27:08.936Z,95651.03
2022-12-25T07:29:35.391Z,95657.59
2022-12-25T07:32:01.929Z,95655.44
2022-12-25T07:34:28.463Z,95665.47
2022-12-25T07:36:55.244Z,95668.13
2022-12-25T07:39:21.696Z,95678.75
2022-12-25T07:41:48.242Z,95675.41
2022-12-25T07:44:15.424Z,95656.09
2022-12-25T07:46:42.304Z,95671.56
2022-12-25T07:49:10.232Z,95677.91
2022-12-25T07:51:36.710Z,95685.78
2022-12-25T07:54:03.273Z,95685.09
2022-12-25T07:56:29.834Z,95679.94
2022-12-25T07:58:56.627Z,95687.66
2022-12-25T08:01:25.519Z,95693.25
2022-12-25T08:03:55.043Z,95686.31
2022-12-25T08:06:23.745Z,95689.88
2022-12-25T08:08:50.258Z,95689.66
2022-12-25T08:11:16.701Z,95697.00
2022-12-25T08:13:43.196Z,95699.91
2022-12-25T08:16:10.782Z,95703.22
2022-12-25T08:18:38.868Z,95707.09
2022-12-25T08:21:08.767Z,95698.16
2022-12-25T08:23:37.844Z,95697.09
2022-12-25T08:26:06.253Z,95691.47
2022-12-25T08:28:33.420Z,95696.75
2022-12-25T08:31:05.343Z,95700.31
2022-12-25T08:33:31.874Z,95707.78
2022-12-25T08:36:02.948Z,95710.69
2022-12-25T08:38:29.404Z,95710.94
2022-12-25T08:40:55.915Z,95717.50
2022-12-25T08:43:22.424Z,95723.63
2022-12-25T08:45:49.215Z,95716.50
2022-12-25T08:48:15.778Z,95720.44
2022-12-25T08:50:52.864Z,95718.09
2022-12-25T08:53:20.505Z,95720.53
2022-12-25T08:55:47.002Z,95712.44
2022-12-25T08:58:13.975Z,95726.06
2022-12-25T09:00:41.273Z,95726.66
2022-12-25T09:03:08.267Z,95719.66
2022-12-25T09:05:38.137Z,95720.41
2022-12-25T09:08:04.849Z,95709.72
2022-12-25T09:10:34.663Z,95691.88
2022-12-25T09:13:01.312Z,95709.00
2022-12-25T09:15:27.869Z,95707.28
2022-12-25T09:17:54.445Z,95712.88
2022-12-25T09:20:21.008Z,95712.38
2022-12-25T09:22:47.739Z,95718.78
2022-12-25T09:25:14.270Z,95720.16
2022-12-25T09:27:40.754Z,95722.69
2022-12-25T09:30:07.746Z,95727.16
2022-12-25T09:32:34.296Z,95735.13
2022-12-25T09:35:00.794Z,95731.47
2022-12-25T09:37:28.647Z,95731.38
2022-12-25T09:39:55.160Z,95727.47
2022-12-25T09:42:30.991Z,95730.47
2022-12-25T09:45:11.801Z,95718.56
2022-12-25T09:47:43.998Z,95714.16
2022-12-25T09:50:42.218Z,95708.53
2022-12-25T09:53:21.215Z,95697.94
2022-12-25T09:56:03.827Z,95704.22
2022-12-25T09:58:34.252Z,95714.16
2022-12-25T10:01:12.802Z,95714.25
2022-12-25T10:03:45.258Z,95701.22
2022-12-25T10:06:31.373Z,95692.47
2022-12-25T10:09:08.135Z,95700.75
2022-12-25T10:12:16.298Z,95710.22
2022-12-25T10:15:18.727Z,95697.81
2022-12-25T10:18:28.225Z,95703.28
2022-12-25T10:20:58.385Z,95698.66
2022-12-25T10:23:42.980Z,95704.56
2022-12-25T10:26:18.594Z,95698.66
2022-12-25T10:28:50.955Z,95700.19
2022-12-25T10:31:22.875Z,95696.88
2022-12-25T10:33:52.326Z,95689.94
2022-12-25T10:36:25.146Z,95682.47
2022-12-25T10:38:53.060Z,95685.34
2022-12-25T10:41:39.341Z,95692.94
2022-12-25T10:44:17.365Z,95687.38
2022-12-25T10:46:49.014Z,95689.47
2022-12-25T10:49:19.465Z,95687.56
2022-12-25T10:51:46.180Z,95686.00
2022-12-25T10:54:22.155Z,95675.69
2022-12-25T10:57:10.207Z,95662.03
2022-12-25T10:59:48.795Z,95660.56
2022-12-25T11:02:29.936Z,95658.41
2022-12-25T11:05:11.167Z,95670.13
2022-12-25T11:07:45.320Z,95681.19
2022-12-25T11:10:21.994Z,95682.72
2022-12-25T11:12:49.370Z,95671.88
2022-12-25T11:15:34.148Z,95630.50
2022-12-25T11:18:00.739Z,95629.59
2022-12-25T11:20:27.683Z,95632.69
2022-12-25T11:22:54.166Z,95656.81
2022-12-25T11:25:26.610Z,95677.13
2022-12-25T11:28:01.516Z,95672.59
2022-12-25T11:30:32.325Z,95667.50
2022-12-25T11:33:06.683Z,95675.97
2022-12-25T11:35:48.775Z,95672.16
2022-12-25T11:38:15.348Z,95654.03
2022-12-25T11:40:49.002Z,95633.06
2022-12-25T11:43:38.405Z,95643.63
2022-12-25T11:46:18.164Z,95658.69
2022-12-25T11:48:51.453Z,95663.69
2022-12-25T11:51:20.464Z,95657.28
2022-12-25T11:53:48.796Z,95664.19
2022-12-25T11:56:20.354Z,95671.13
2022-12-25T11:58:52.366Z,95667.41
2022-12-25T12:01:41.939Z,95653.38
2022-12-25T12:04:29.446Z,95663.84
2022-12-25T12:07:21.124Z,95654.13
2022-12-25T12:09:52.715Z,95665.84
2022-12-25T12:12:53.145Z,95658.22
2022-12-25T12:15:31.337Z,95651.38
2022-12-25T12:18:20.698Z,95657.28
2022-12-25T12:21:15.948Z,95661.72
2022-12-25T12:24:16.130Z,95670.16
2022-12-25T12:26:46.077Z,95678.06
2022-12-25T12:29:28.928Z,95669.13
2022-12-25T12:32:01.745Z,95666.81
2022-12-25T12:34:43.625Z,95650.88
2022-12-25T12:37:30.380Z,95648.06
2022-12-25T12:39:58.090Z,95657.81
2022-12-25T12:42:47.358Z,95653.44
2022-12-25T12:45:23.204Z,95648.16
2022-12-25T12:47:52.987Z,95653.94
2022-12-25T12:50:38.155Z,95652.16
2022-12-25T12:53:23.044Z,95652.31
2022-12-25T12:55:51.302Z,95649.03
2022-12-25T12:58:35.187Z,95654.31
2022-12-25T13:01:39.740Z,95646.28
2022-12-25T13:04:30.582Z,95646.50
2022-12-25T13:07:21.901Z,95649.56
2022-12-25T13:10:11.972Z,95656.09
2022-12-25T13:12:38.620Z,95650.66
2022-12-25T13:15:13.634Z,95651.22
2022-12-25T13:17:44.992Z,95661.03
2022-12-25T13:20:55.745Z,95665.81
2022-12-25T13:23:30.032Z,95657.22
2022-12-25T13:25:59.588Z,95653.47
2022-12-25T13:28:27.204Z,95664.97
2022-12-25T13:30:53.752Z,95669.34
2022-12-25T13:33:20.404Z,95664.69
2022-12-25T13:35:47.400Z,95657.00
2022-12-25T13:38:17.211Z,95658.38
2022-12-25T13:40:53.009Z,95648.66
2022-12-25T13:43:19.562Z,95652.44
2022-12-25T13:45:54.478Z,95651.72
2022-12-25T13:48:21.429Z,95652.38
2022-12-25T13:50:57.695Z,95647.16
2022-12-25T13:53:24.213Z,95649.03
2022-12-25T13:55:53.350Z,95643.50
2022-12-25T13:58:28.581Z,95641.25
2022-12-25T14:00:58.462Z,95653.72
2022-12-25T14:03:39.496Z,95645.84
2022-12-25T14:06:28.062Z,95645.56
2022-12-25T14:08:56.745Z,95648.19
2022-12-25T14:11:26.820Z,95640.75
2022-12-25T14:13:59.547Z,95653.00
2022-12-25T14:16:27.491Z,95652.22
2022-12-25T14:19:00.530Z,95661.53
2022-12-25T14:21:31.632Z,95651.41
2022-12-25T14:23:59.395Z,95661.72
2022-12-25T14:26:32.685Z,95653.59
2022-12-25T14:29:17.560Z,95660.78
2022-12-25T14:31:47.179Z,95663.25
2022-12-25T14:34:20.866Z,95666.28
2022-12-25T14:36:48.807Z,95670.56
2022-12-25T14:39:34.704Z,95652.28
2022-12-25T14:42:31.402Z,95653.50
2022-12-25T14:45:25.766Z,95643.53
2022-12-25T14:47:57.261Z,95636.97
2022-12-25T14:50:31.246Z,95652.63
2022-12-25T14:52:59.518Z,95647.31
2022-12-25T14:55:28.687Z,95643.78
2022-12-25T14:57:58.767Z,95650.72
2022-12-25T15:00:25.221Z,95641.25
2022-12-25T15:02:55.243Z,95637.13
2022-12-25T15:05:29.528Z,95634.34
2022-12-25T15:08:08.204Z,95630.41
2022-12-25T15:13:22.578Z,95632.63
2022-12-25T15:16:11.484Z,95628.56
2022-12-25T15:18:45.000Z,95633.09
2022-12-25T15:21:30.934Z,95636.41
2022-12-25T15:23:59.602Z,95642.34
2022-12-25T15:26:28.400Z,95642.88
2022-12-25T15:28:54.869Z,95641.66
2022-12-25T15:31:29.837Z,95634.06
2022-12-25T15:33:59.475Z,95638.59
2022-12-25T15:36:27.466Z,95630.16
2022-12-25T15:38:54.850Z,95627.59
2022-12-25T15:41:40.505Z,95619.38
2022-12-25T15:44:07.831Z,95616.44
2022-12-25T15:46:34.466Z,95625.25
2022-12-25T15:49:01.155Z,95624.75
2022-12-25T15:51:27.699Z,95631.69
2022-12-25T15:53:54.333Z,95625.34
2022-12-25T15:56:23.197Z,95626.50
2022-12-25T15:58:49.835Z,95627.13
2022-12-25T16:01:19.274Z,95633.56
2022-12-25T16:03:47.216Z,95633.78
2022-12-25T16:06:16.621Z,95638.13
2022-12-25T16:08:43.657Z,95643.06
2022-12-25T16:11:11.463Z,95658.56
2022-12-25T16:13:38.002Z,95640.16
2022-12-25T16:16:05.067Z,95640.53
2022-12-25T16:18:31.654Z,95636.25
2022-12-25T16:20:59.483Z,95631.06
2022-12-25T16:23:26.050Z,95648.56
2022-12-25T16:25:52.531Z,95641.25
2022-12-25T16:28:19.019Z,95656.44
2022-12-25T16:30:45.550Z,95651.53
2022-12-25T16:33:12.184Z,95657.63
2022-12-25T16:35:38.758Z,95658.34
2022-12-25T16:38:05.279Z,95655.41
2022-12-25T16:40:32.223Z,95648.84
2022-12-25T16:42:58.953Z,95639.84
2022-12-25T16:45:25.498Z,95655.69
2022-12-25T16:47:51.988Z,95653.25
2022-12-25T16:50:18.600Z,95656.66
2022-12-25T16:52:45.192Z,95660.03
2022-12-25T16:55:11.733Z,95662.00
2022-12-25T16:57:38.280Z,95680.34
2022-12-25T17:00:05.973Z,95687.63
2022-12-25T17:02:32.727Z,95685.25
2022-12-25T17:04:59.328Z,95689.84
2022-12-25T17:07:26.710Z,95704.28
2022-12-25T17:09:53.163Z,95700.31
2022-12-25T17:12:19.626Z,95715.25
2022-12-25T17:14:46.195Z,95706.63
2022-12-25T17:17:12.642Z,95705.97
2022-12-25T17:19:39.208Z,95708.25
2022-12-25T17:22:05.699Z,95697.28
2022-12-25T17:24:32.197Z,95702.34
2022-12-25T17:26:58.706Z,95693.94
2022-12-25T17:29:25.236Z,95689.97
2022-12-25T17:31:52.029Z,95694.88
2022-12-25T17:34:18.746Z,95689.88
2022-12-25T17:36:45.282Z,95688.25
2022-12-25T17:39:11.860Z,95687.97
2022-12-25T17:41:38.398Z,95695.56
2022-12-25T17:44:05.234Z,95681.06
2022-12-25T17:46:31.855Z,95672.22
2022-12-25T17:49:00.285Z,95675.78
2022-12-25T17:51:29.120Z,95675.84
2022-12-25T17:53:58.873Z,95693.53
2022-12-25T17:56:26.064Z,95678.94
2022-12-25T17:58:56.642Z,95673.47
2022-12-25T18:01:24.725Z,95680.22
2022-12-25T18:03:51.983Z,95683.03
2022-12-25T18:06:22.154Z,95686.47
2022-12-25T18:08:49.468Z,95690.94
2022-12-25T18:11:20.499Z,95682.84
2022-12-25T18:13:49.418Z,95688.78
2022-12-25T18:16:16.960Z,95686.19
2022-12-25T18:18:51.182Z,95678.13
2022-12-25T18:21:19.495Z,95688.94
2022-12-25T18:23:46.038Z,95677.91
2022-12-25T18:26:12.644Z,95669.81
2022-12-25T18:28:40.301Z,95671.78
2022-12-25T18:31:10.991Z,95668.81
2022-12-25T18:33:37.549Z,95674.88
2022-12-25T18:36:04.574Z,95677.84
2022-12-25T18:38:31.052Z,95678.81
2022-12-25T18:40:57.639Z,95680.00
2022-12-25T18:43:53.960Z,95696.94
2022-12-25T18:46:10.873Z,95697.78
2022-12-25T18:48:38.221Z,95688.06
2022-12-25T18:51:11.488Z,95692.38
2022-12-25T18:53:38.294Z,95679.34
2022-12-25T18:56:10.939Z,95684.28
2022-12-25T18:58:38.218Z,95679.81
2022-12-25T19:01:20.490Z,95673.75
2022-12-25T19:03:47.647Z,95676.44
2022-12-25T19:06:26.723Z,95677.06
2022-12-25T19:08:53.643Z,95692.25
2022-12-25T19:11:21.189Z,95696.50
2022-12-25T19:13:47.733Z,95687.91
2022-12-25T19:16:14.330Z,95689.56
2022-12-25T19:18:42.676Z,95693.19
2022-12-25T19:21:09.567Z,95697.78
2022-12-25T19:23:37.375Z,95701.22
2022-12-25T19:26:05.633Z,95707.69
2022-12-25T19:28:32.163Z,95721.69
2022-12-25T19:31:00.400Z,95712.63
2022-12-25T19:33:26.976Z,95716.56
2022-12-25T19:35:53.495Z,95710.34
2022-12-25T19:38:19.975Z,95707.41
2022-12-25T19:40:48.192Z,95708.38
2022-12-25T19:43:14.772Z,95712.00
2022-12-25T19:45:41.363Z,95715.00
2022-12-25T19:48:07.892Z,95727.03
2022-12-25T19:50:37.160Z,95725.88
2022-12-25T19:53:03.615Z,95728.19
2022-12-25T19:55:31.818Z,95733.75
2022-12-25T19:57:58.290Z,95727.19
2022-12-25T20:00:24.766Z,95735.09
2022-12-25T20:02:51.370Z,95732.94
2022-12-25T20:05:17.936Z,95733.47
2022-12-25T20:07:44.386Z,95735.09
2022-12-25T20:10:10.845Z,95738.72
2022-12-25T20:12:37.362Z,95742.72
2022-12-25T20:15:04.107Z,95746.31
2022-12-25T20:17:30.616Z,95756.19
2022-12-25T20:19:57.100Z,95758.16
2022-12-25T20:22:23.599Z,95766.06
2022-12-25T20:24:50.113Z,95773.13
2022-12-25T20:27:16.628Z,95777.22
2022-12-25T20:29:43.133Z,95778.56
2022-12-25T20:32:09.674Z,95786.47
2022-12-25T20:34:36.653Z,95781.69
2022-12-25T20:37:03.122Z,95789.56
2022-12-25T20:39:29.660Z,95792.69
2022-12-25T20:41:56.164Z,95796.34
2022-12-25T20:44:22.932Z,95802.91
2022-12-25T20:46:49.394Z,95791.72
2022-12-25T20:49:15.869Z,95804.06
2022-12-25T20:51:42.365Z,95810.81
2022-12-25T20:54:10.276Z,95814.59
2022-12-25T20:56:37.489Z,95816.41
2022-12-25T20:59:03.951Z,95825.88
2022-12-25T21:01:31.063Z,95834.38
2022-12-25T21:03:58.290Z,95835.72
2022-12-25T21:06:24.850Z,95838.09
2022-12-25T21:08:51.356Z,95833.19
2022-12-25T21:11:18.276Z,95827.75
2022-12-25T21:13:45.504Z,95844.34
2022-12-25T21:16:15.824Z,95842.63
2022-12-25T21:18:42.507Z,95826.13
2022-12-25T21:21:10.073Z,95846.91
2022-12-25T21:23:39.423Z,95853.91
2022-12-25T21:26:27.038Z,95859.22
2022-12-25T21:28:55.966Z,95861.19
2022-12-25T21:31:23.977Z,95854.91
2022-12-25T21:33:50.599Z,95856.25
2022-12-25T21:36:21.269Z,95855.59
2022-12-25T21:38:47.872Z,95859.69
2022-12-25T21:41:14.944Z,95861.03
2022-12-25T21:43:41.449Z,95866.44
2022-12-25T21:46:10.995Z,95875.97
2022-12-25T21:48:38.778Z,95876.50
2022-12-25T21:51:08.420Z,95876.00
2022-12-25T21:53:34.886Z,95869.56
2022-12-25T21:56:01.786Z,95880.94
2022-12-25T21:58:28.752Z,95878.63
2022-12-25T22:00:55.564Z,95892.13
2022-12-25T22:03:23.936Z,95886.53
2022-12-25T22:05:50.488Z,95889.66
2022-12-25T22:08:16.957Z,95883.72
2022-12-25T22:10:43.492Z,95904.63
2022-12-25T22:13:10.063Z,95895.09
2022-12-25T22:15:37.092Z,95902.34
2022-12-25T22:18:03.687Z,95899.03
2022-12-25T22:20:38.217Z,95897.41
2022-12-25T22:23:04.963Z,95903.31
2022-12-25T22:25:31.787Z,95902.69
2022-12-25T22:27:58.341Z,95919.66
2022-12-25T22:30:27.464Z,95912.72
2022-12-25T22:32:54.935Z,95920.75
2022-12-25T22:35:21.743Z,95925.63
2022-12-25T22:37:48.470Z,95927.84
2022-12-25T22:40:17.002Z,95931.63
2022-12-25T22:42:43.844Z,95944.13
2022-12-25T22:45:11.297Z,95940.38
2022-12-25T22:47:38.008Z,95941.84
2022-12-25T22:50:05.369Z,95937.84
2022-12-25T22:52:31.847Z,95939.84
2022-12-25T22:54:58.342Z,95937.06
2022-12-25T22:57:25.125Z,95944.28
2022-12-25T22:59:52.311Z,95950.88
2022-12-25T23:02:19.011Z,95948.06
2022-12-25T23:04:45.755Z,95946.63
2022-12-25T23:07:12.257Z,95953.72
2022-12-25T23:09:38.723Z,95955.69
2022-12-25T23:12:05.602Z,95956.34
2022-12-25T23:14:32.038Z,95958.63
2022-12-25T23:16:59.829Z,95951.91
2022-12-25T23:19:26.616Z,95960.97
2022-12-25T23:21:56.364Z,95968.97
2022-12-25T23:24:23.059Z,95963.38
2022-12-25T23:26:49.543Z,95961.59
2022-12-25T23:29:16.038Z,95966.88
2022-12-25T23:31:43.129Z,95965.22
2022-12-25T23:34:10.572Z,95971.16
2022-12-25T23:36:37.131Z,95966.19
2022-12-25T23:39:09.643Z,95977.22
2022-12-25T23:41:38.580Z,95983.97
2022-12-25T23:44:05.291Z,95975.38
2022-12-25T23:46:31.898Z,95986.59
2022-12-25T23:48:58.395Z,95979.31
2022-12-25T23:51:24.982Z,95980.59
2022-12-25T23:53:51.493Z,95972.75
2022-12-25T23:56:17.943Z,95978.31
2022-12-25T23:58:44.470Z,95982.09
